Winigan, MO (63566)

2:20 AM CST on February 08, 2016 (GMT -0600)
Mystic Plains COA | | Change Station
CLOSE
Current Station
Personal Weather Station
Location: Novinger, MO
Elevation: 984 ft
Nearby Weather Stations
Active Advisory: Wind Advisory

Elev 984 ft 40.12 °N, 92.79 °W | Updated 7 seconds ago

Overcast
Overcast
28.0 °F
Feels Like 15 °F
N
18.0
Wind Variable Wind from WNW
Gusts 35.0 mph

Today
High -- | Low -- °F
--% Chance of Precip.
Yesterday
High -- | Low -- °F
Precip. -- in
Pressure 29.86 in
Visibility 9.0 miles
Clouds Overcast 2600 ft
Windchill 15 °F
Dew Point 19 °F
Humidity 68%
Rainfall 0.00 in
Snow Depth Not available.
7:13 AM 5:38 PM
Waning Crescent, 0% visible
METAR KIRK 080755Z AUTO 30012G20KT 9SM OVC026 M01/M06 A2983 RMK AO2 PK WND 30028/0711 SNB04E52 SLP112 P0000 T10111061
Pressure 29.86 in
Visibility 9.0 miles
Clouds Overcast 2600 ft
Windchill 15 °F
Dew Point 19 °F
Humidity 68%
Rainfall 0.00 in
Snow Depth Not available.
7:13 AM 5:38 PM
Waning Crescent, 0% visible
METAR KIRK 080755Z AUTO 30012G20KT 9SM OVC026 M01/M06 A2983 RMK AO2 PK WND 30028/0711 SNB04E52 SLP112 P0000 T10111061

10-Day Weather Forecast

Almanac

Astronomy

Feb. 08, 2016 Rise Set
Actual Time
Civil Twilight
Nautical Twilight
Astronomical Twilight
Moon
Length of Visible Light
Length of Day
Tomorrow will be .
, % of the Moon is Illuminated

Today's Extremes

State Highs State Lows

Community

WunderPhotos

Upload Photos

1,891,412 photos uploaded!

WunderBlog® & News

Nearby

Air Quality

  Air Quality AQ Index Pollutant
Not available.

Snow Depth

Station Depth Elevation

Earthquake Activity

City Distance Mag. Time & Date
Minimum magnitude displayed is 2.5.

Coastal Water Temperatures

Place Temperature

Stations

Nearby Weather Stations

Station Location Temp. Windchill Dew Point Humidity Wind Precip. Elev Updated Type
                   

Watches & Warnings

Wind Advisory
Issued: 2:42 PM CST Feb. 7, 2016 – National Weather Service

... Wind Advisory in effect from 8 am to 6 PM CST Monday...

The National Weather Service in Kansas City/Pleasant Hill has
issued a Wind Advisory... which is in effect from 8 am to 6 PM CST
Monday.

* Timing... Monday morning through Monday evening

* winds... sustained winds up to 30 mph and gusts to 45 mph.

* Impacts... strong Crosswinds on highways could make travel
difficult... particularly for high profile vehicles.

Precautionary/preparedness actions...

A Wind Advisory means that winds of 35 mph are expected. Winds
this strong can make driving difficult... especially for high
profile vehicles. Use extra caution.



Cdb